createdAt,value
2018-08-23T00:00:37.916Z,20.77
2018-08-23T00:03:12.901Z,20.89
2018-08-23T00:05:45.101Z,20.85
2018-08-23T00:08:13.115Z,20.83
2018-08-23T00:10:41.097Z,20.79
2018-08-23T00:13:09.161Z,20.88
2018-08-23T00:15:37.274Z,20.79
2018-08-23T00:18:05.270Z,20.79
2018-08-23T00:20:36.199Z,20.79
2018-08-23T00:23:04.671Z,20.85
2018-08-23T00:25:32.864Z,20.73
2018-08-23T00:28:00.932Z,20.86
2018-08-23T00:30:29.725Z,20.73
2018-08-23T00:32:58.712Z,20.74
2018-08-23T00:35:26.764Z,20.80
2018-08-23T00:37:54.768Z,20.87
2018-08-23T00:40:22.809Z,20.85
2018-08-23T00:42:56.324Z,20.80
2018-08-23T00:45:24.334Z,20.73
2018-08-23T00:47:52.343Z,20.57
2018-08-23T00:50:29.544Z,20.56
2018-08-23T00:52:57.554Z,20.54
2018-08-23T00:55:28.962Z,20.58
2018-08-23T00:57:56.965Z,20.65
2018-08-23T01:00:26.159Z,20.58
2018-08-23T01:02:58.060Z,20.42
2018-08-23T01:05:31.570Z,20.44
2018-08-23T01:07:59.565Z,20.53
2018-08-23T01:10:27.553Z,20.59
2018-08-23T01:13:00.905Z,20.65
2018-08-23T01:15:29.623Z,20.47
2018-08-23T01:18:10.386Z,20.45
2018-08-23T01:20:39.163Z,20.41
2018-08-23T01:23:07.233Z,20.41
2018-08-23T01:25:36.634Z,20.44
2018-08-23T01:28:04.940Z,20.43
2018-08-23T01:30:33.029Z,20.48
2018-08-23T01:33:01.056Z,20.48
2018-08-23T01:35:29.092Z,20.53
2018-08-23T01:37:57.065Z,20.51
2018-08-23T01:40:25.096Z,20.47
2018-08-23T01:42:53.113Z,20.44
2018-08-23T01:45:21.120Z,20.51
2018-08-23T01:47:59.257Z,20.47
2018-08-23T01:50:27.800Z,20.49
2018-08-23T01:52:57.108Z,20.43
2018-08-23T01:55:25.793Z,20.32
2018-08-23T01:57:54.132Z,20.22
2018-08-23T02:00:24.312Z,20.27
2018-08-23T02:02:52.354Z,20.37
2018-08-23T02:05:20.345Z,20.37
2018-08-23T02:07:48.338Z,20.39
2018-08-23T02:10:16.345Z,20.40
2018-08-23T02:12:49.882Z,20.44
2018-08-23T02:15:17.969Z,20.42
2018-08-23T02:17:51.589Z,20.25
2018-08-23T02:20:19.953Z,20.13
2018-08-23T02:22:47.964Z,20.14
2018-08-23T02:25:17.052Z,20.14
2018-08-23T02:28:05.236Z,20.19
2018-08-23T02:30:54.717Z,20.13
2018-08-23T02:33:22.757Z,20.11
2018-08-23T02:36:22.492Z,20.18
2018-08-23T02:38:56.054Z,20.16
2018-08-23T02:41:24.056Z,20.13
2018-08-23T02:43:52.057Z,20.16
2018-08-23T02:46:20.054Z,20.13
2018-08-23T02:48:48.077Z,20.12
2018-08-23T02:51:16.081Z,20.08
2018-08-23T02:53:46.952Z,20.11
2018-08-23T02:56:18.370Z,20.02
2018-08-23T02:59:00.974Z,20.06
2018-08-23T03:01:30.759Z,20.03
2018-08-23T03:04:07.445Z,19.97
2018-08-23T03:06:39.999Z,19.88
2018-08-23T03:09:08.558Z,19.93
2018-08-23T03:11:37.261Z,19.95
2018-08-23T03:14:06.698Z,19.98
2018-08-23T03:16:47.646Z,19.99
2018-08-23T03:19:15.959Z,19.96
2018-08-23T03:21:44.229Z,19.94
2018-08-23T03:24:12.394Z,19.87
2018-08-23T03:26:40.641Z,19.95
2018-08-23T03:29:08.825Z,19.94
2018-08-23T03:31:36.833Z,19.95
2018-08-23T03:34:04.873Z,19.95
2018-08-23T03:36:32.914Z,19.93
2018-08-23T03:39:00.946Z,19.91
2018-08-23T03:41:28.937Z,19.93
2018-08-23T03:43:56.928Z,19.91
2018-08-23T03:46:24.932Z,19.95
2018-08-23T03:48:58.281Z,19.90
2018-08-23T03:51:26.468Z,19.84
2018-08-23T03:54:00.830Z,19.69
2018-08-23T03:56:28.824Z,19.75
2018-08-23T03:58:56.808Z,19.75
2018-08-23T04:01:24.829Z,19.78
2018-08-23T04:03:53.381Z,19.83
2018-08-23T04:06:31.683Z,19.83
2018-08-23T04:08:59.684Z,19.77
2018-08-23T04:11:27.689Z,19.79
2018-08-23T04:13:56.060Z,19.82
2018-08-23T04:16:26.766Z,19.81
2018-08-23T04:18:55.121Z,19.81
2018-08-23T04:21:23.164Z,19.75
2018-08-23T04:23:51.273Z,19.78
2018-08-23T04:26:19.662Z,19.74
2018-08-23T04:28:47.680Z,19.71
2018-08-23T04:31:15.724Z,19.70
2018-08-23T04:33:43.736Z,19.70
2018-08-23T04:36:31.192Z,19.75
2018-08-23T04:39:04.981Z,19.74
2018-08-23T04:41:33.276Z,19.81
2018-08-23T04:44:08.958Z,19.92
2018-08-23T04:46:36.949Z,20.02
2018-08-23T04:49:06.697Z,20.09
2018-08-23T04:51:35.513Z,20.16
2018-08-23T04:54:03.518Z,20.24
2018-08-23T04:56:31.960Z,20.30
2018-08-23T04:58:59.969Z,20.29
2018-08-23T05:01:27.959Z,20.25
2018-08-23T05:03:56.001Z,20.29
2018-08-23T05:06:23.980Z,20.29
2018-08-23T05:08:52.004Z,20.28
2018-08-23T05:11:20.050Z,20.40
2018-08-23T05:13:48.345Z,20.70
2018-08-23T05:16:16.666Z,20.73
2018-08-23T05:18:44.908Z,21.11
2018-08-23T05:21:12.945Z,21.55
2018-08-23T05:23:41.005Z,21.88
2018-08-23T05:26:12.888Z,22.05
2018-08-23T05:28:43.121Z,21.99
2018-08-23T05:31:11.109Z,22.00
2018-08-23T05:33:39.165Z,21.82
2018-08-23T05:36:12.561Z,21.65
2018-08-23T05:38:40.613Z,21.49
2018-08-23T05:41:13.140Z,21.32
2018-08-23T05:43:41.428Z,21.16
2018-08-23T05:46:09.604Z,21.12
2018-08-23T05:48:37.605Z,20.94
2018-08-23T05:51:07.746Z,21.05
2018-08-23T05:53:43.054Z,20.97
2018-08-23T05:56:11.136Z,21.04
2018-08-23T05:58:39.225Z,21.11
2018-08-23T06:01:07.313Z,21.11
2018-08-23T06:03:37.066Z,20.89
2018-08-23T06:06:05.145Z,21.00
2018-08-23T06:08:33.840Z,20.99
2018-08-23T06:11:09.073Z,20.47
2018-08-23T06:13:37.365Z,20.34
2018-08-23T06:16:05.568Z,20.43
2018-08-23T06:18:34.844Z,20.47
2018-08-23T06:21:02.913Z,20.15
2018-08-23T06:24:10.161Z,20.21
2018-08-23T06:26:46.358Z,20.17
2018-08-23T06:29:20.070Z,20.27
2018-08-23T06:31:51.079Z,20.44
2018-08-23T06:34:19.113Z,20.48
2018-08-23T06:36:47.477Z,20.60
2018-08-23T06:39:15.536Z,20.80
2018-08-23T06:41:43.809Z,20.55
2018-08-23T06:44:12.228Z,20.26
2018-08-23T06:46:40.240Z,20.24
2018-08-23T06:49:08.270Z,20.25
2018-08-23T06:51:36.300Z,20.36
2018-08-23T06:54:04.395Z,20.57
2018-08-23T06:56:35.348Z,20.72
2018-08-23T06:59:03.422Z,20.92
2018-08-23T07:01:37.647Z,20.85
2018-08-23T07:04:11.337Z,20.46
2018-08-23T07:06:39.399Z,20.67
2018-08-23T07:09:14.321Z,20.68
2018-08-23T07:11:42.533Z,20.77
2018-08-23T07:14:12.668Z,21.01
2018-08-23T07:16:41.569Z,21.24
2018-08-23T07:19:24.216Z,21.38
2018-08-23T07:21:52.797Z,21.58
2018-08-23T07:24:36.136Z,21.68
2018-08-23T07:27:04.938Z,22.00
2018-08-23T07:29:33.421Z,22.09
2018-08-23T07:32:03.680Z,22.34
2018-08-23T07:34:31.697Z,22.27
2018-08-23T07:37:02.981Z,22.39
2018-08-23T07:39:30.969Z,22.35
2018-08-23T07:41:58.983Z,22.39
2018-08-23T07:44:26.969Z,22.65
2018-08-23T07:46:54.994Z,22.54
2018-08-23T07:49:23.024Z,22.75
2018-08-23T07:51:52.309Z,22.96
2018-08-23T07:54:21.504Z,23.19
2018-08-23T07:56:49.557Z,23.23
2018-08-23T07:59:17.556Z,23.13
2018-08-23T08:01:45.586Z,23.07
2018-08-23T08:04:14.913Z,23.02
2018-08-23T08:06:43.102Z,23.22
2018-08-23T08:09:11.754Z,23.05
2018-08-23T08:11:47.064Z,23.22
2018-08-23T08:14:20.461Z,23.51
2018-08-23T08:16:48.564Z,23.85
2018-08-23T08:19:16.558Z,23.96
2018-08-23T08:21:44.636Z,24.21
2018-08-23T08:24:12.592Z,24.05
2018-08-23T08:26:40.644Z,24.39
2018-08-23T08:29:08.641Z,24.71
2018-08-23T08:31:36.691Z,24.83
2018-08-23T08:34:05.755Z,25.06
2018-08-23T08:36:34.469Z,25.19
2018-08-23T08:39:04.567Z,25.26
2018-08-23T08:41:33.385Z,25.06
2018-08-23T08:44:01.673Z,25.15
2018-08-23T08:46:29.681Z,25.65
2018-08-23T08:48:57.868Z,25.90
2018-08-23T08:51:28.593Z,25.80
2018-08-23T08:53:57.416Z,26.43
2018-08-23T08:56:29.072Z,26.87
2018-08-23T08:58:57.162Z,27.11
2018-08-23T09:01:25.135Z,27.27
2018-08-23T09:03:53.123Z,27.70
2018-08-23T09:06:27.545Z,28.40
2018-08-23T09:08:55.564Z,28.89
2018-08-23T09:11:23.986Z,29.36
2018-08-23T09:13:51.984Z,30.07
2018-08-23T09:16:22.725Z,30.52
2018-08-23T09:18:59.141Z,30.86
2018-08-23T09:21:27.481Z,30.59
2018-08-23T09:23:55.505Z,30.29
2018-08-23T09:26:28.952Z,30.18
2018-08-23T09:28:56.945Z,30.19
2018-08-23T09:31:25.039Z,30.19
2018-08-23T09:33:53.039Z,30.32
2018-08-23T09:36:21.034Z,30.80
2018-08-23T09:38:49.128Z,30.96
2018-08-23T09:41:17.265Z,31.04
2018-08-23T09:43:45.266Z,31.21
2018-08-23T09:46:13.377Z,31.48
2018-08-23T09:48:41.428Z,31.56
2018-08-23T09:51:16.948Z,31.88
2018-08-23T09:53:45.000Z,31.06
2018-08-23T09:56:44.174Z,31.58
2018-08-23T09:59:12.140Z,31.42
2018-08-23T10:01:45.473Z,31.60
2018-08-23T10:04:18.835Z,31.57
2018-08-23T10:06:52.069Z,30.95
2018-08-23T10:09:23.488Z,31.51
2018-08-23T10:11:56.887Z,31.96
2018-08-23T10:14:30.347Z,31.65
2018-08-23T10:17:03.713Z,30.90
2018-08-23T10:19:37.068Z,31.18
2018-08-23T10:22:10.505Z,31.40
2018-08-23T10:24:38.523Z,31.20
2018-08-23T10:27:06.528Z,30.66
2018-08-23T10:29:34.541Z,30.65
2018-08-23T10:32:02.628Z,30.83
2018-08-23T10:34:30.592Z,30.91
2018-08-23T10:36:58.597Z,31.19
2018-08-23T10:39:26.591Z,31.50
2018-08-23T10:41:54.589Z,31.30
2018-08-23T10:44:22.761Z,31.11
2018-08-23T10:46:55.600Z,31.40
2018-08-23T10:49:23.729Z,31.39
2018-08-23T10:51:51.793Z,31.58
2018-08-23T10:54:19.999Z,31.59
2018-08-23T10:56:48.164Z,31.71
2018-08-23T10:59:16.216Z,31.90
2018-08-23T11:01:44.200Z,31.75
2018-08-23T11:04:12.226Z,31.36
2018-08-23T11:06:45.776Z,31.41
2018-08-23T11:09:19.136Z,31.55
2018-08-23T11:11:47.247Z,31.84
2018-08-23T11:14:20.799Z,31.63
2018-08-23T11:16:54.424Z,31.47
2018-08-23T11:20:30.599Z,31.68
2018-08-23T11:22:58.646Z,31.83
2018-08-23T11:25:26.729Z,31.39
2018-08-23T11:27:55.121Z,31.53
2018-08-23T11:30:23.140Z,31.89
2018-08-23T11:32:52.657Z,31.86
2018-08-23T11:35:21.044Z,32.02
2018-08-23T11:37:49.661Z,31.84
2018-08-23T11:40:17.948Z,31.83
2018-08-23T11:42:46.095Z,31.73
2018-08-23T11:45:14.049Z,31.89
2018-08-23T11:47:42.137Z,31.56
2018-08-23T11:50:10.287Z,31.59
2018-08-23T11:52:38.345Z,31.59
2018-08-23T11:55:06.373Z,31.81
2018-08-23T11:57:34.413Z,31.67
2018-08-23T12:00:02.409Z,31.62
2018-08-23T12:02:30.397Z,31.66
2018-08-23T12:04:58.412Z,31.64
2018-08-23T12:07:26.411Z,31.83
2018-08-23T12:09:54.511Z,31.74
2018-08-23T12:12:23.108Z,31.71
2018-08-23T12:14:55.260Z,31.78
2018-08-23T12:17:23.553Z,31.69
2018-08-23T12:19:51.657Z,31.66
2018-08-23T12:22:23.849Z,32.01
2018-08-23T12:24:51.949Z,31.81
2018-08-23T12:27:20.232Z,31.64
2018-08-23T12:29:48.218Z,31.48
2018-08-23T12:32:16.300Z,31.68
2018-08-23T12:34:44.415Z,31.72
2018-08-23T12:37:17.988Z,32.07
2018-08-23T12:39:51.405Z,32.47
2018-08-23T12:42:24.752Z,32.57
2018-08-23T12:44:52.775Z,32.55
2018-08-23T12:47:20.997Z,32.53
2018-08-23T12:49:49.761Z,32.68
2018-08-23T12:52:18.531Z,32.67
2018-08-23T12:54:46.782Z,31.87
2018-08-23T12:57:15.013Z,31.74
2018-08-23T12:59:43.043Z,32.19
2018-08-23T13:02:11.211Z,32.45
2018-08-23T13:04:39.289Z,32.16
2018-08-23T13:07:07.458Z,32.24
2018-08-23T13:09:35.777Z,32.33
2018-08-23T13:12:03.860Z,32.22
2018-08-23T13:14:32.113Z,32.29
2018-08-23T13:17:00.418Z,32.45
2018-08-23T13:19:28.515Z,32.75
2018-08-23T13:22:01.993Z,32.97
2018-08-23T13:24:30.423Z,33.09
2018-08-23T13:26:58.453Z,33.25
2018-08-23T13:29:26.909Z,33.21
2018-08-23T13:31:55.400Z,33.08
2018-08-23T13:34:23.341Z,33.00
2018-08-23T13:36:51.603Z,32.71
2018-08-23T13:39:19.525Z,32.65
2018-08-23T13:41:47.522Z,32.62
2018-08-23T13:44:15.516Z,32.17
2018-08-23T13:46:43.540Z,32.17
2018-08-23T13:49:11.571Z,32.21
2018-08-23T13:51:39.702Z,32.33
2018-08-23T13:54:07.705Z,32.22
2018-08-23T13:56:35.716Z,31.88
2018-08-23T13:59:03.797Z,32.04
2018-08-23T14:01:31.865Z,31.69
2018-08-23T14:03:59.894Z,31.44
2018-08-23T14:06:28.052Z,31.26
2018-08-23T14:08:56.150Z,30.81
2018-08-23T14:11:24.209Z,30.99
2018-08-23T14:13:52.350Z,31.18
2018-08-23T14:16:20.533Z,31.21
2018-08-23T14:18:48.558Z,30.73
2018-08-23T14:21:16.662Z,30.80
2018-08-23T14:23:44.682Z,30.71
2018-08-23T14:26:12.729Z,30.71
2018-08-23T14:28:40.749Z,30.79
2018-08-23T14:31:08.779Z,30.82
2018-08-23T14:33:36.776Z,30.95
2018-08-23T14:36:04.885Z,31.25
2018-08-23T14:38:34.061Z,31.24
2018-08-23T14:41:01.934Z,31.11
2018-08-23T14:43:29.940Z,31.02
2018-08-23T14:46:03.443Z,31.25
2018-08-23T14:48:31.496Z,31.27
2018-08-23T14:50:59.484Z,30.96
2018-08-23T14:53:28.704Z,30.97
2018-08-23T14:56:02.096Z,31.00
2018-08-23T14:58:30.701Z,30.80
2018-08-23T15:00:58.732Z,30.83
2018-08-23T15:03:26.785Z,30.70
2018-08-23T15:05:54.764Z,30.87
2018-08-23T15:08:22.769Z,30.82
2018-08-23T15:10:50.871Z,31.13
2018-08-23T15:13:18.921Z,31.12
2018-08-23T15:15:48.746Z,30.93
2018-08-23T15:18:17.781Z,30.93
2018-08-23T15:20:45.885Z,30.99
2018-08-23T15:23:13.913Z,30.95
2018-08-23T15:25:41.904Z,30.50
2018-08-23T15:28:09.920Z,30.85
2018-08-23T15:30:37.904Z,30.91
2018-08-23T15:33:06.123Z,30.84
2018-08-23T15:35:34.116Z,30.54
2018-08-23T15:38:02.148Z,30.41
2018-08-23T15:40:30.152Z,30.43
2018-08-23T15:42:58.192Z,30.35
2018-08-23T15:45:26.213Z,30.27
2018-08-23T15:47:54.279Z,30.06
2018-08-23T15:50:22.917Z,30.00
2018-08-23T15:52:51.388Z,30.22
2018-08-23T15:55:19.646Z,29.99
2018-08-23T15:57:47.602Z,29.88
2018-08-23T16:00:15.695Z,30.07
2018-08-23T16:02:43.899Z,30.01
2018-08-23T16:05:11.949Z,30.16
2018-08-23T16:07:39.947Z,30.15
2018-08-23T16:10:08.485Z,30.17
2018-08-23T16:12:36.478Z,30.09
2018-08-23T16:15:09.829Z,30.00
2018-08-23T16:17:43.397Z,29.88
2018-08-23T16:20:16.745Z,29.80
2018-08-23T16:22:45.186Z,29.88
2018-08-23T16:25:13.229Z,29.35
2018-08-23T16:27:41.224Z,29.36
2018-08-23T16:30:09.269Z,29.61
2018-08-23T16:32:37.552Z,29.45
2018-08-23T16:35:05.596Z,29.56
2018-08-23T16:37:34.274Z,29.42
2018-08-23T16:40:02.484Z,29.38
2018-08-23T16:42:31.060Z,29.38
2018-08-23T16:44:59.141Z,28.99
2018-08-23T16:47:27.197Z,29.27
2018-08-23T16:49:55.215Z,29.47
2018-08-23T16:52:23.269Z,29.58
2018-08-23T16:54:51.286Z,29.47
2018-08-23T16:57:19.318Z,29.61
2018-08-23T16:59:47.334Z,29.47
2018-08-23T17:02:15.368Z,29.30
2018-08-23T17:04:44.577Z,29.20
2018-08-23T17:07:13.534Z,29.27
2018-08-23T17:09:41.558Z,29.22
2018-08-23T17:12:09.673Z,29.27
2018-08-23T17:14:37.664Z,29.27
2018-08-23T17:17:11.245Z,29.07
2018-08-23T17:19:46.185Z,29.13
2018-08-23T17:22:14.193Z,28.65
2018-08-23T17:24:42.354Z,28.84
2018-08-23T17:27:10.210Z,28.90
2018-08-23T17:29:38.408Z,28.83
2018-08-23T17:32:06.561Z,28.82
2018-08-23T17:34:34.601Z,29.01
2018-08-23T17:37:02.792Z,28.95
2018-08-23T17:39:30.793Z,29.16
2018-08-23T17:41:58.833Z,28.95
2018-08-23T17:44:26.854Z,28.82
2018-08-23T17:46:55.064Z,28.79
2018-08-23T17:49:23.180Z,28.50
2018-08-23T17:51:51.133Z,28.47
2018-08-23T17:54:19.208Z,28.36
2018-08-23T17:56:47.465Z,28.45
2018-08-23T17:59:15.551Z,28.41
2018-08-23T18:01:44.538Z,28.42
2018-08-23T18:04:12.639Z,28.45
2018-08-23T18:06:40.808Z,28.50
2018-08-23T18:09:10.417Z,28.48
2018-08-23T18:11:38.583Z,28.48
2018-08-23T18:14:06.733Z,28.50
2018-08-23T18:16:40.096Z,28.45
2018-08-23T18:19:08.105Z,28.41
2018-08-23T18:21:36.141Z,28.31
2018-08-23T18:24:04.266Z,28.24
2018-08-23T18:26:32.398Z,28.09
2018-08-23T18:29:00.417Z,27.98
2018-08-23T18:31:28.428Z,27.93
2018-08-23T18:33:56.457Z,27.86
2018-08-23T18:36:24.496Z,27.66
2018-08-23T18:38:52.568Z,27.58
2018-08-23T18:41:21.853Z,27.45
2018-08-23T18:43:49.904Z,27.36
2018-08-23T18:46:17.908Z,27.21
2018-08-23T18:48:46.917Z,27.07
2018-08-23T18:51:14.932Z,27.00
2018-08-23T18:53:42.984Z,26.96
2018-08-23T18:56:11.035Z,26.79
2018-08-23T18:58:39.131Z,26.68
2018-08-23T19:01:07.158Z,26.51
2018-08-23T19:03:35.238Z,26.41
2018-08-23T19:06:03.578Z,26.30
2018-08-23T19:08:31.633Z,26.24
2018-08-23T19:10:59.829Z,26.11
2018-08-23T19:13:28.239Z,26.07
2018-08-23T19:16:01.753Z,25.96
2018-08-23T19:18:29.779Z,25.85
2018-08-23T19:20:57.873Z,25.76
2018-08-23T19:23:25.968Z,25.64
2018-08-23T19:25:54.125Z,25.50
2018-08-23T19:28:22.188Z,25.42
2018-08-23T19:30:50.193Z,25.37
2018-08-23T19:33:19.283Z,25.26
2018-08-23T19:35:47.331Z,25.21
2018-08-23T19:38:15.537Z,25.15
2018-08-23T19:40:43.572Z,25.13
2018-08-23T19:43:11.681Z,25.11
2018-08-23T19:45:45.281Z,24.97
2018-08-23T19:48:13.450Z,24.93
2018-08-23T19:50:41.449Z,24.85
2018-08-23T19:53:09.628Z,24.76
2018-08-23T19:55:37.869Z,24.64
2018-08-23T19:58:05.932Z,24.60
2018-08-23T20:00:34.018Z,24.53
2018-08-23T20:03:02.164Z,24.45
2018-08-23T20:05:30.192Z,24.39
2018-08-23T20:07:58.221Z,24.32
2018-08-23T20:10:26.311Z,24.28
2018-08-23T20:12:54.361Z,24.21
2018-08-23T20:15:24.357Z,24.16
2018-08-23T20:17:52.922Z,24.06
2018-08-23T20:20:20.918Z,24.00
2018-08-23T20:22:48.916Z,23.90
2018-08-23T20:25:16.975Z,23.87
2018-08-23T20:27:46.112Z,23.85
2018-08-23T20:30:14.145Z,23.81
2018-08-23T20:32:42.180Z,23.75
2018-08-23T20:35:10.348Z,23.73
2018-08-23T20:37:38.729Z,23.71
2018-08-23T20:40:06.945Z,23.69
2018-08-23T20:42:34.972Z,23.67
2018-08-23T20:45:03.020Z,23.64
2018-08-23T20:47:31.056Z,23.62
2018-08-23T20:49:59.134Z,23.56
2018-08-23T20:52:27.204Z,23.55
2018-08-23T20:54:55.280Z,23.52
2018-08-23T20:57:23.289Z,23.49
2018-08-23T20:59:51.312Z,23.46
2018-08-23T21:02:19.418Z,23.42
2018-08-23T21:04:47.461Z,23.36
2018-08-23T21:07:15.545Z,23.28
2018-08-23T21:09:43.586Z,23.20
2018-08-23T21:12:11.580Z,23.17
2018-08-23T21:14:39.594Z,23.12
2018-08-23T21:17:08.261Z,22.96
2018-08-23T21:19:36.274Z,22.97
2018-08-23T21:22:04.288Z,22.91
2018-08-23T21:24:32.377Z,22.85
2018-08-23T21:27:00.767Z,22.83
2018-08-23T21:29:28.924Z,22.78
2018-08-23T21:31:57.013Z,22.66
2018-08-23T21:34:25.323Z,22.65
2018-08-23T21:39:20.513Z,22.60
2018-08-23T21:41:48.591Z,22.42
2018-08-23T21:44:16.638Z,22.36
2018-08-23T21:46:44.729Z,22.21
2018-08-23T21:49:12.725Z,22.19
2018-08-23T21:51:40.770Z,22.10
2018-08-23T21:54:08.820Z,22.17
2018-08-23T21:56:36.848Z,22.24
2018-08-23T21:59:04.892Z,22.26
2018-08-23T22:01:32.936Z,22.22
2018-08-23T22:04:01.105Z,22.18
2018-08-23T22:06:29.126Z,22.21
2018-08-23T22:08:57.303Z,22.17
2018-08-23T22:11:25.352Z,22.13
2018-08-23T22:13:53.488Z,21.92
2018-08-23T22:16:21.517Z,21.93
2018-08-23T22:18:49.628Z,21.91
2018-08-23T22:21:17.753Z,21.89
2018-08-23T22:23:45.777Z,22.06
2018-08-23T22:26:13.876Z,22.08
2018-08-23T22:28:41.993Z,21.99
2018-08-23T22:31:10.020Z,22.04
2018-08-23T22:33:38.121Z,22.03
2018-08-23T22:36:06.086Z,21.99
2018-08-23T22:38:34.106Z,22.02
2018-08-23T22:41:02.481Z,21.85
2018-08-23T22:43:30.490Z,21.89
2018-08-23T22:45:58.505Z,21.99
2018-08-23T22:48:26.522Z,21.99
2018-08-23T22:50:54.811Z,21.83
2018-08-23T22:55:47.701Z,21.72
2018-08-23T22:58:15.640Z,21.75
2018-08-23T23:00:43.668Z,21.77
2018-08-23T23:03:18.272Z,21.72
2018-08-23T23:05:46.296Z,21.79
2018-08-23T23:08:14.328Z,21.72
2018-08-23T23:10:42.368Z,21.82
2018-08-23T23:13:10.405Z,21.82
2018-08-23T23:15:38.440Z,21.63
2018-08-23T23:18:06.459Z,21.77
2018-08-23T23:20:34.481Z,21.72
2018-08-23T23:23:02.781Z,21.67
2018-08-23T23:25:30.805Z,21.79
2018-08-23T23:27:58.804Z,21.76
2018-08-23T23:30:26.798Z,21.73
2018-08-23T23:32:55.908Z,21.51
2018-08-23T23:35:23.903Z,21.30
2018-08-23T23:37:51.942Z,21.25
2018-08-23T23:40:20.096Z,21.27
2018-08-23T23:42:48.129Z,21.23
2018-08-23T23:45:16.184Z,21.27
2018-08-23T23:47:44.259Z,21.29
2018-08-23T23:50:12.261Z,21.26
2018-08-23T23:52:40.261Z,21.17
2018-08-23T23:55:08.407Z,21.12
2018-08-23T23:57:36.448Z,21.18
